Paris, France
Current Conditions -  °F | °C
As of 6:00 PM on Thursday 23 Oct 2014 (Local Time) from LFPB Reporting Station
Overcast Overcast  
Wind Chill: 55°   Ceiling: 3800
Heat Index: 55°   Visibility: 6mi
Dew Point: 43°   Wind: 6mph
Humidity: 63%   Direction: 240°WSW
Pressure: 30.21"   Gusts: NA
Location:  48.86°N, 2.35°E
Report Text: LFPB 231600Z AUTO 24005KT 9999 OVC038 13/06 Q1023
Loading
Personal Weather Stations






























Interactive Weather Map New forecast layout! Learn more

10-Day Weather Forecast

Advertisements
Track Severe Weather on mobile